Flora, IL

12:55 AM CDT am 26. Oktober 2014 (GMT -0500)
Flora Municipal | Change Station
CLOSE
Current Station
Flughafen
Location: Flora,
Höhe: 472 ft
Wetterstationen in der Umgebung

Höhe 472 ft 38.67 °N, 88.45 °W | Updated 20 minutes ago

Heiter
Heiter
53 °F
gefühlte 53 °F
N
0
Wind Wechselnd Wind aus Nord

Heute
Max. -- | schwach -- °F
--% Regenrisiko
Gestern
Max. -- | schwach -- °F
Precip. -- inch
7:14 AM 6:00 PM
Erstes Viertel, 6% visible
Druck 30.01 inch
Sichtweite 10.0 Meilen
Wolken Heiter
Taupunkt 48 °F
Feuchtigkeit 85%
Regen 0.00 inch
Schneehöhe Nicht verfügbar..
UV 0 von 12
Pollen 2.00 von 12
Luftqualität Nicht verfügbar..
Flu Activity No Activity
METAR KFOA 260535Z AUTO 00000KT 10SM CLR 12/09 A3001 RMK AO2 T01160091

More Conditions Fewer Conditions

Druck 30.01 inch
Sichtweite 10.0 Meilen
Wolken Heiter
Taupunkt 48 °F
Feuchtigkeit 85%
Regen 0.00 inch
Schneehöhe Nicht verfügbar..
UV 0 von 12
Pollen 2.00 von 12
Luftqualität Nicht verfügbar..
Flu Activity No Activity
METAR KFOA 260535Z AUTO 00000KT 10SM CLR 12/09 A3001 RMK AO2 T01160091

More Conditions Fewer Conditions

10-Day Weather Forecast

Almanac

Astronomie

Oct. 26, 2014 Aufgang Untergang
Genaue Zeit 07:14 CDT 18:00 CDT
Bürgerliche Dämmerung 06:46 CDT 18:27 CDT
Nautische Dämmerung 06:15 CDT 18:59 CDT
Astronomische Dämmerung 05:45 CDT 19:29 CDT
Mond 09:50 CDT 20:13 CDT
Länge des sichtbaren Lichts 11h 40m
Tageslänge
10h 46m
Tomorrow will be 2m 17s shorter.
Erstes Viertel, 6% of the Moon is Illuminated
Heute
Erstes Viertel
Okt 30
Erstes Viertel
Nov 6
Vollmond
Nov 14
Letztes Viertel
Nov 22
Neu

Heutige Rekorde

State Highs State Lows

Community

WunderPhotos

Upload Photos

1,765,112 Fotos hochgeladen!

Nearby

Schneehöhe

Station Depth Höhe
Kein Neuschnee gemeldet.

Erdbebenaktivität

Stadt Distance Mag. Time & Date
No recent earthquake activity has been reported nearby.
Minimum magnitude displayed is 2.5.

küstennahe Wassertemperaturen

Ort Temperatur
Kein Stationsbericht

Wetterstationen in der Umgebung